sensor_id;sensor_type;location;lat;lon;timestamp;P1;durP1;ratioP1;P2;durP2;ratioP2
1296;SDS011;641;48.492;9.184;2022-08-20T00:00:45;11.10;;;5.90;;
1296;SDS011;641;48.492;9.184;2022-08-20T00:03:14;11.03;;;6.23;;
1296;SDS011;641;48.492;9.184;2022-08-20T00:05:41;10.57;;;5.43;;
1296;SDS011;641;48.492;9.184;2022-08-20T00:08:09;9.80;;;5.70;;
1296;SDS011;641;48.492;9.184;2022-08-20T00:10:36;9.50;;;5.70;;
1296;SDS011;641;48.492;9.184;2022-08-20T00:13:04;14.43;;;6.60;;
1296;SDS011;641;48.492;9.184;2022-08-20T00:15:32;9.90;;;6.00;;
1296;SDS011;641;48.492;9.184;2022-08-20T00:18:01;13.30;;;6.70;;
1296;SDS011;641;48.492;9.184;2022-08-20T00:20:30;12.53;;;6.03;;
1296;SDS011;641;48.492;9.184;2022-08-20T00:22:58;12.20;;;5.50;;
1296;SDS011;641;48.492;9.184;2022-08-20T00:25:26;9.90;;;4.90;;
1296;SDS011;641;48.492;9.184;2022-08-20T00:27:53;11.70;;;5.70;;
1296;SDS011;641;48.492;9.184;2022-08-20T00:30:20;11.67;;;5.63;;
1296;SDS011;641;48.492;9.184;2022-08-20T00:32:48;12.10;;;5.47;;
1296;SDS011;641;48.492;9.184;2022-08-20T00:35:19;11.73;;;5.20;;
1296;SDS011;641;48.492;9.184;2022-08-20T00:37:47;10.03;;;5.00;;
1296;SDS011;641;48.492;9.184;2022-08-20T00:40:13;9.80;;;4.70;;
1296;SDS011;641;48.492;9.184;2022-08-20T00:42:41;12.77;;;4.83;;
1296;SDS011;641;48.492;9.184;2022-08-20T00:45:10;9.20;;;4.10;;
1296;SDS011;641;48.492;9.184;2022-08-20T00:47:37;10.23;;;4.97;;
1296;SDS011;641;48.492;9.184;2022-08-20T00:50:10;9.43;;;4.30;;
1296;SDS011;641;48.492;9.184;2022-08-20T00:52:39;10.00;;;5.13;;
1296;SDS011;641;48.492;9.184;2022-08-20T00:55:07;8.90;;;4.23;;
1296;SDS011;641;48.492;9.184;2022-08-20T00:57:42;10.67;;;4.57;;
1296;SDS011;641;48.492;9.184;2022-08-20T01:00:16;8.83;;;4.20;;
1296;SDS011;641;48.492;9.184;2022-08-20T01:02:45;9.17;;;4.33;;
1296;SDS011;641;48.492;9.184;2022-08-20T01:05:11;9.47;;;4.30;;
1296;SDS011;641;48.492;9.184;2022-08-20T01:07:38;10.83;;;4.80;;
1296;SDS011;641;48.492;9.184;2022-08-20T01:10:07;9.27;;;4.50;;
1296;SDS011;641;48.492;9.184;2022-08-20T01:12:39;9.27;;;4.60;;
1296;SDS011;641;48.492;9.184;2022-08-20T01:15:11;10.67;;;4.87;;
1296;SDS011;641;48.492;9.184;2022-08-20T01:17:41;11.40;;;4.60;;
1296;SDS011;641;48.492;9.184;2022-08-20T01:20:23;9.57;;;4.53;;
1296;SDS011;641;48.492;9.184;2022-08-20T01:26:10;9.30;;;4.67;;
1296;SDS011;641;48.492;9.184;2022-08-20T01:28:46;9.60;;;4.40;;
1296;SDS011;641;48.492;9.184;2022-08-20T01:31:20;10.93;;;4.73;;
1296;SDS011;641;48.492;9.184;2022-08-20T01:33:48;11.07;;;4.23;;
1296;SDS011;641;48.492;9.184;2022-08-20T01:36:17;9.70;;;4.40;;
1296;SDS011;641;48.492;9.184;2022-08-20T01:38:46;9.17;;;5.00;;
1296;SDS011;641;48.492;9.184;2022-08-20T01:44:16;11.53;;;4.57;;
1296;SDS011;641;48.492;9.184;2022-08-20T01:46:44;8.77;;;4.10;;
1296;SDS011;641;48.492;9.184;2022-08-20T01:49:12;9.50;;;4.80;;
1296;SDS011;641;48.492;9.184;2022-08-20T01:51:41;10.03;;;4.93;;
1296;SDS011;641;48.492;9.184;2022-08-20T01:54:07;11.10;;;4.97;;
1296;SDS011;641;48.492;9.184;2022-08-20T01:56:33;9.20;;;4.60;;
1296;SDS011;641;48.492;9.184;2022-08-20T01:59:02;11.50;;;4.60;;
1296;SDS011;641;48.492;9.184;2022-08-20T02:01:35;9.07;;;4.67;;
1296;SDS011;641;48.492;9.184;2022-08-20T02:04:04;9.17;;;4.77;;
1296;SDS011;641;48.492;9.184;2022-08-20T02:06:32;12.50;;;4.90;;
1296;SDS011;641;48.492;9.184;2022-08-20T02:09:00;10.53;;;4.50;;
1296;SDS011;641;48.492;9.184;2022-08-20T02:11:28;10.00;;;4.57;;
1296;SDS011;641;48.492;9.184;2022-08-20T02:13:57;8.67;;;4.40;;
1296;SDS011;641;48.492;9.184;2022-08-20T02:16:24;9.60;;;4.57;;
1296;SDS011;641;48.492;9.184;2022-08-20T02:18:56;10.17;;;4.30;;
1296;SDS011;641;48.492;9.184;2022-08-20T02:21:26;9.37;;;4.90;;
1296;SDS011;641;48.492;9.184;2022-08-20T02:23:54;9.20;;;4.80;;
1296;SDS011;641;48.492;9.184;2022-08-20T02:26:20;11.10;;;4.37;;
1296;SDS011;641;48.492;9.184;2022-08-20T02:28:47;10.20;;;4.50;;
1296;SDS011;641;48.492;9.184;2022-08-20T02:31:18;10.80;;;5.07;;
1296;SDS011;641;48.492;9.184;2022-08-20T02:33:46;8.40;;;4.17;;
1296;SDS011;641;48.492;9.184;2022-08-20T02:36:12;10.97;;;4.53;;
1296;SDS011;641;48.492;9.184;2022-08-20T02:38:39;9.60;;;4.33;;
1296;SDS011;641;48.492;9.184;2022-08-20T02:41:06;9.10;;;4.27;;
1296;SDS011;641;48.492;9.184;2022-08-20T02:43:34;11.17;;;4.77;;
1296;SDS011;641;48.492;9.184;2022-08-20T02:46:01;9.47;;;4.70;;
1296;SDS011;641;48.492;9.184;2022-08-20T02:48:27;11.33;;;4.70;;
1296;SDS011;641;48.492;9.184;2022-08-20T02:50:57;11.93;;;4.67;;
1296;SDS011;641;48.492;9.184;2022-08-20T02:53:26;9.17;;;4.47;;
1296;SDS011;641;48.492;9.184;2022-08-20T02:55:53;10.53;;;4.13;;
1296;SDS011;641;48.492;9.184;2022-08-20T02:58:19;9.77;;;4.70;;
1296;SDS011;641;48.492;9.184;2022-08-20T03:00:46;8.90;;;4.40;;
1296;SDS011;641;48.492;9.184;2022-08-20T03:03:12;11.50;;;4.20;;
1296;SDS011;641;48.492;9.184;2022-08-20T03:05:40;9.33;;;4.20;;
1296;SDS011;641;48.492;9.184;2022-08-20T03:08:07;9.03;;;4.43;;
1296;SDS011;641;48.492;9.184;2022-08-20T03:10:36;8.87;;;4.17;;
1296;SDS011;641;48.492;9.184;2022-08-20T03:13:03;9.63;;;5.07;;
1296;SDS011;641;48.492;9.184;2022-08-20T03:15:30;8.70;;;4.20;;
1296;SDS011;641;48.492;9.184;2022-08-20T03:17:58;10.70;;;4.63;;
1296;SDS011;641;48.492;9.184;2022-08-20T03:20:25;10.80;;;4.77;;
1296;SDS011;641;48.492;9.184;2022-08-20T03:22:51;9.60;;;4.90;;
1296;SDS011;641;48.492;9.184;2022-08-20T03:25:16;12.27;;;5.43;;
1296;SDS011;641;48.492;9.184;2022-08-20T03:27:42;10.70;;;5.50;;
1296;SDS011;641;48.492;9.184;2022-08-20T03:30:09;12.10;;;5.47;;
1296;SDS011;641;48.492;9.184;2022-08-20T03:32:37;25.33;;;5.83;;
1296;SDS011;641;48.492;9.184;2022-08-20T03:35:03;10.03;;;4.90;;
1296;SDS011;641;48.492;9.184;2022-08-20T03:37:31;10.03;;;5.33;;
1296;SDS011;641;48.492;9.184;2022-08-20T03:39:59;11.20;;;5.97;;
1296;SDS011;641;48.492;9.184;2022-08-20T03:42:25;9.70;;;5.20;;
1296;SDS011;641;48.492;9.184;2022-08-20T03:44:51;10.97;;;5.57;;
1296;SDS011;641;48.492;9.184;2022-08-20T03:47:17;11.10;;;5.73;;
1296;SDS011;641;48.492;9.184;2022-08-20T03:49:44;13.63;;;5.67;;
1296;SDS011;641;48.492;9.184;2022-08-20T03:52:10;10.13;;;5.13;;
1296;SDS011;641;48.492;9.184;2022-08-20T03:54:36;11.00;;;5.67;;
1296;SDS011;641;48.492;9.184;2022-08-20T03:57:02;11.13;;;5.93;;
1296;SDS011;641;48.492;9.184;2022-08-20T03:59:29;11.57;;;5.50;;
1296;SDS011;641;48.492;9.184;2022-08-20T04:01:57;12.10;;;5.10;;
1296;SDS011;641;48.492;9.184;2022-08-20T04:04:23;10.90;;;5.13;;
1296;SDS011;641;48.492;9.184;2022-08-20T04:06:49;10.20;;;5.60;;
1296;SDS011;641;48.492;9.184;2022-08-20T04:09:15;11.50;;;5.27;;
1296;SDS011;641;48.492;9.184;2022-08-20T04:11:41;16.60;;;7.30;;
1296;SDS011;641;48.492;9.184;2022-08-20T04:14:08;9.50;;;4.90;;
1296;SDS011;641;48.492;9.184;2022-08-20T04:16:35;10.63;;;5.40;;
1296;SDS011;641;48.492;9.184;2022-08-20T04:19:02;10.23;;;5.30;;
1296;SDS011;641;48.492;9.184;2022-08-20T04:21:29;9.60;;;5.50;;
1296;SDS011;641;48.492;9.184;2022-08-20T04:23:56;10.30;;;5.53;;
1296;SDS011;641;48.492;9.184;2022-08-20T04:26:22;12.77;;;5.60;;
1296;SDS011;641;48.492;9.184;2022-08-20T04:28:47;10.50;;;5.10;;
1296;SDS011;641;48.492;9.184;2022-08-20T04:31:19;10.03;;;4.93;;
1296;SDS011;641;48.492;9.184;2022-08-20T04:33:45;9.50;;;4.90;;
1296;SDS011;641;48.492;9.184;2022-08-20T04:36:11;16.33;;;5.10;;
1296;SDS011;641;48.492;9.184;2022-08-20T04:38:38;9.00;;;4.70;;
1296;SDS011;641;48.492;9.184;2022-08-20T04:41:04;12.23;;;4.90;;
1296;SDS011;641;48.492;9.184;2022-08-20T04:43:31;10.40;;;6.10;;
1296;SDS011;641;48.492;9.184;2022-08-20T04:45:59;11.37;;;5.93;;
1296;SDS011;641;48.492;9.184;2022-08-20T04:48:29;12.83;;;5.50;;
1296;SDS011;641;48.492;9.184;2022-08-20T04:50:56;10.63;;;5.30;;
1296;SDS011;641;48.492;9.184;2022-08-20T04:53:23;12.53;;;4.90;;
1296;SDS011;641;48.492;9.184;2022-08-20T04:55:51;10.33;;;5.90;;
1296;SDS011;641;48.492;9.184;2022-08-20T04:58:27;9.53;;;5.40;;
1296;SDS011;641;48.492;9.184;2022-08-20T05:01:00;11.50;;;6.10;;
1296;SDS011;641;48.492;9.184;2022-08-20T05:03:29;14.47;;;5.63;;
1296;SDS011;641;48.492;9.184;2022-08-20T05:05:55;9.83;;;5.20;;
1296;SDS011;641;48.492;9.184;2022-08-20T05:08:22;9.87;;;5.40;;
1296;SDS011;641;48.492;9.184;2022-08-20T05:10:49;11.30;;;5.43;;
1296;SDS011;641;48.492;9.184;2022-08-20T05:13:16;10.60;;;5.47;;
1296;SDS011;641;48.492;9.184;2022-08-20T05:15:42;12.40;;;5.83;;
1296;SDS011;641;48.492;9.184;2022-08-20T05:18:12;12.03;;;5.30;;
1296;SDS011;641;48.492;9.184;2022-08-20T05:20:41;9.20;;;5.00;;
1296;SDS011;641;48.492;9.184;2022-08-20T05:23:08;11.10;;;5.70;;
1296;SDS011;641;48.492;9.184;2022-08-20T05:25:36;11.07;;;5.23;;
1296;SDS011;641;48.492;9.184;2022-08-20T05:28:07;10.87;;;5.17;;
1296;SDS011;641;48.492;9.184;2022-08-20T05:30:36;11.07;;;5.50;;
1296;SDS011;641;48.492;9.184;2022-08-20T05:33:04;10.23;;;5.47;;
1296;SDS011;641;48.492;9.184;2022-08-20T05:35:32;12.37;;;6.17;;
1296;SDS011;641;48.492;9.184;2022-08-20T05:38:00;10.63;;;5.90;;
1296;SDS011;641;48.492;9.184;2022-08-20T05:40:26;11.97;;;6.13;;
1296;SDS011;641;48.492;9.184;2022-08-20T05:42:52;15.10;;;6.30;;
1296;SDS011;641;48.492;9.184;2022-08-20T05:45:19;9.53;;;5.43;;
1296;SDS011;641;48.492;9.184;2022-08-20T05:47:46;10.37;;;5.70;;
1296;SDS011;641;48.492;9.184;2022-08-20T05:50:12;10.97;;;6.47;;
1296;SDS011;641;48.492;9.184;2022-08-20T05:52:39;10.87;;;4.93;;
1296;SDS011;641;48.492;9.184;2022-08-20T05:55:06;10.37;;;6.23;;
1296;SDS011;641;48.492;9.184;2022-08-20T05:57:33;12.17;;;5.73;;
1296;SDS011;641;48.492;9.184;2022-08-20T06:00:00;10.90;;;6.20;;
1296;SDS011;641;48.492;9.184;2022-08-20T06:02:27;10.63;;;5.63;;
1296;SDS011;641;48.492;9.184;2022-08-20T06:05:11;11.67;;;6.13;;
1296;SDS011;641;48.492;9.184;2022-08-20T06:07:37;10.07;;;5.60;;
1296;SDS011;641;48.492;9.184;2022-08-20T06:10:03;10.23;;;5.83;;
1296;SDS011;641;48.492;9.184;2022-08-20T06:12:30;14.90;;;7.60;;
1296;SDS011;641;48.492;9.184;2022-08-20T06:14:56;11.53;;;5.80;;
1296;SDS011;641;48.492;9.184;2022-08-20T06:17:22;11.27;;;5.90;;
1296;SDS011;641;48.492;9.184;2022-08-20T06:19:48;15.50;;;6.13;;
1296;SDS011;641;48.492;9.184;2022-08-20T06:22:14;11.63;;;5.67;;
1296;SDS011;641;48.492;9.184;2022-08-20T06:24:40;11.40;;;5.60;;
1296;SDS011;641;48.492;9.184;2022-08-20T06:27:06;11.23;;;5.63;;
1296;SDS011;641;48.492;9.184;2022-08-20T06:29:32;12.37;;;5.53;;
1296;SDS011;641;48.492;9.184;2022-08-20T06:31:59;14.50;;;5.93;;
1296;SDS011;641;48.492;9.184;2022-08-20T06:34:25;10.70;;;5.43;;
1296;SDS011;641;48.492;9.184;2022-08-20T06:36:52;9.27;;;4.40;;
1296;SDS011;641;48.492;9.184;2022-08-20T06:39:18;10.97;;;5.40;;
1296;SDS011;641;48.492;9.184;2022-08-20T06:41:44;10.60;;;5.90;;
1296;SDS011;641;48.492;9.184;2022-08-20T06:44:10;9.77;;;5.13;;
1296;SDS011;641;48.492;9.184;2022-08-20T06:46:36;12.47;;;5.20;;
1296;SDS011;641;48.492;9.184;2022-08-20T06:49:03;10.90;;;5.30;;
1296;SDS011;641;48.492;9.184;2022-08-20T06:51:30;11.20;;;5.60;;
1296;SDS011;641;48.492;9.184;2022-08-20T06:53:56;12.63;;;5.20;;
1296;SDS011;641;48.492;9.184;2022-08-20T06:56:21;10.20;;;5.30;;
1296;SDS011;641;48.492;9.184;2022-08-20T06:58:47;10.87;;;5.30;;
1296;SDS011;641;48.492;9.184;2022-08-20T07:01:13;9.90;;;5.00;;
1296;SDS011;641;48.492;9.184;2022-08-20T07:03:45;9.80;;;5.40;;
1296;SDS011;641;48.492;9.184;2022-08-20T07:06:11;10.10;;;5.37;;
1296;SDS011;641;48.492;9.184;2022-08-20T07:08:37;9.40;;;4.80;;
1296;SDS011;641;48.492;9.184;2022-08-20T07:11:03;10.77;;;5.17;;
1296;SDS011;641;48.492;9.184;2022-08-20T07:13:29;9.67;;;5.00;;
1296;SDS011;641;48.492;9.184;2022-08-20T07:15:55;10.57;;;5.63;;
1296;SDS011;641;48.492;9.184;2022-08-20T07:18:21;9.70;;;5.10;;
1296;SDS011;641;48.492;9.184;2022-08-20T07:20:48;10.00;;;4.70;;
1296;SDS011;641;48.492;9.184;2022-08-20T07:23:14;9.70;;;4.50;;
1296;SDS011;641;48.492;9.184;2022-08-20T07:25:40;9.50;;;4.77;;
1296;SDS011;641;48.492;9.184;2022-08-20T07:28:12;9.63;;;4.90;;
1296;SDS011;641;48.492;9.184;2022-08-20T07:30:40;11.37;;;5.20;;
1296;SDS011;641;48.492;9.184;2022-08-20T07:33:25;10.50;;;5.17;;
1296;SDS011;641;48.492;9.184;2022-08-20T07:35:52;9.33;;;4.40;;
1296;SDS011;641;48.492;9.184;2022-08-20T07:38:20;9.90;;;4.60;;
1296;SDS011;641;48.492;9.184;2022-08-20T07:40:49;9.97;;;5.27;;
1296;SDS011;641;48.492;9.184;2022-08-20T07:43:16;9.73;;;4.70;;
1296;SDS011;641;48.492;9.184;2022-08-20T07:45:42;10.07;;;5.37;;
1296;SDS011;641;48.492;9.184;2022-08-20T07:48:08;10.00;;;4.47;;
1296;SDS011;641;48.492;9.184;2022-08-20T07:50:36;11.83;;;6.30;;
1296;SDS011;641;48.492;9.184;2022-08-20T07:53:02;10.83;;;5.53;;
1296;SDS011;641;48.492;9.184;2022-08-20T07:55:28;9.30;;;4.97;;
1296;SDS011;641;48.492;9.184;2022-08-20T07:57:54;10.80;;;5.37;;
1296;SDS011;641;48.492;9.184;2022-08-20T08:00:22;9.97;;;5.40;;
1296;SDS011;641;48.492;9.184;2022-08-20T08:02:49;12.57;;;4.97;;
1296;SDS011;641;48.492;9.184;2022-08-20T08:05:15;10.30;;;5.20;;
1296;SDS011;641;48.492;9.184;2022-08-20T08:07:42;10.07;;;4.87;;
1296;SDS011;641;48.492;9.184;2022-08-20T08:10:10;11.80;;;5.97;;
1296;SDS011;641;48.492;9.184;2022-08-20T08:12:40;10.00;;;4.20;;
1296;SDS011;641;48.492;9.184;2022-08-20T08:15:12;10.07;;;5.30;;
1296;SDS011;641;48.492;9.184;2022-08-20T08:17:41;14.70;;;5.80;;
1296;SDS011;641;48.492;9.184;2022-08-20T08:20:08;9.40;;;5.27;;
1296;SDS011;641;48.492;9.184;2022-08-20T08:22:36;13.67;;;4.90;;
1296;SDS011;641;48.492;9.184;2022-08-20T08:25:06;10.20;;;4.50;;
1296;SDS011;641;48.492;9.184;2022-08-20T08:27:33;9.90;;;4.77;;
1296;SDS011;641;48.492;9.184;2022-08-20T08:29:59;10.87;;;4.97;;
1296;SDS011;641;48.492;9.184;2022-08-20T08:32:27;12.30;;;4.80;;
1296;SDS011;641;48.492;9.184;2022-08-20T08:34:55;11.67;;;5.60;;
1296;SDS011;641;48.492;9.184;2022-08-20T08:37:21;11.50;;;4.50;;
1296;SDS011;641;48.492;9.184;2022-08-20T08:39:46;11.40;;;5.30;;
1296;SDS011;641;48.492;9.184;2022-08-20T08:45:16;10.30;;;5.00;;
1296;SDS011;641;48.492;9.184;2022-08-20T08:47:44;10.07;;;5.33;;
1296;SDS011;641;48.492;9.184;2022-08-20T08:50:15;10.60;;;5.17;;
1296;SDS011;641;48.492;9.184;2022-08-20T08:52:49;15.90;;;6.40;;
1296;SDS011;641;48.492;9.184;2022-08-20T08:55:19;10.17;;;5.60;;
1296;SDS011;641;48.492;9.184;2022-08-20T08:57:46;13.17;;;5.20;;
1296;SDS011;641;48.492;9.184;2022-08-20T09:00:15;12.13;;;5.50;;
1296;SDS011;641;48.492;9.184;2022-08-20T09:05:23;9.40;;;4.73;;
1296;SDS011;641;48.492;9.184;2022-08-20T09:07:55;11.50;;;4.53;;
1296;SDS011;641;48.492;9.184;2022-08-20T09:10:22;10.80;;;5.53;;
1296;SDS011;641;48.492;9.184;2022-08-20T09:12:48;11.83;;;4.90;;
1296;SDS011;641;48.492;9.184;2022-08-20T09:15:13;11.03;;;4.30;;
1296;SDS011;641;48.492;9.184;2022-08-20T09:17:40;9.60;;;4.70;;
1296;SDS011;641;48.492;9.184;2022-08-20T09:20:06;12.33;;;5.20;;
1296;SDS011;641;48.492;9.184;2022-08-20T09:22:33;11.93;;;4.57;;
1296;SDS011;641;48.492;9.184;2022-08-20T09:24:59;8.30;;;4.30;;
1296;SDS011;641;48.492;9.184;2022-08-20T09:27:26;9.50;;;4.80;;
1296;SDS011;641;48.492;9.184;2022-08-20T09:29:52;8.63;;;4.23;;
1296;SDS011;641;48.492;9.184;2022-08-20T09:32:18;8.73;;;4.10;;
1296;SDS011;641;48.492;9.184;2022-08-20T09:34:47;10.80;;;4.50;;
1296;SDS011;641;48.492;9.184;2022-08-20T09:37:22;10.07;;;4.07;;
1296;SDS011;641;48.492;9.184;2022-08-20T09:39:50;10.13;;;3.60;;
1296;SDS011;641;48.492;9.184;2022-08-20T09:42:20;9.63;;;3.60;;
1296;SDS011;641;48.492;9.184;2022-08-20T09:44:48;8.17;;;3.40;;
1296;SDS011;641;48.492;9.184;2022-08-20T09:47:14;11.00;;;4.30;;
1296;SDS011;641;48.492;9.184;2022-08-20T09:49:41;8.63;;;3.90;;
1296;SDS011;641;48.492;9.184;2022-08-20T09:52:08;7.90;;;3.30;;
1296;SDS011;641;48.492;9.184;2022-08-20T09:54:35;12.13;;;5.23;;
1296;SDS011;641;48.492;9.184;2022-08-20T09:57:04;9.10;;;4.20;;
1296;SDS011;641;48.492;9.184;2022-08-20T09:59:32;8.30;;;3.67;;
1296;SDS011;641;48.492;9.184;2022-08-20T10:01:58;9.37;;;3.43;;
1296;SDS011;641;48.492;9.184;2022-08-20T10:04:24;8.47;;;3.90;;
1296;SDS011;641;48.492;9.184;2022-08-20T10:06:50;9.60;;;4.30;;
1296;SDS011;641;48.492;9.184;2022-08-20T10:09:16;9.30;;;3.80;;
1296;SDS011;641;48.492;9.184;2022-08-20T10:11:42;8.77;;;3.80;;
1296;SDS011;641;48.492;9.184;2022-08-20T10:14:07;10.93;;;3.80;;
1296;SDS011;641;48.492;9.184;2022-08-20T10:16:33;10.00;;;3.80;;
1296;SDS011;641;48.492;9.184;2022-08-20T10:19:00;7.90;;;3.40;;
1296;SDS011;641;48.492;9.184;2022-08-20T10:21:26;8.20;;;3.80;;
1296;SDS011;641;48.492;9.184;2022-08-20T10:23:51;8.10;;;3.50;;
1296;SDS011;641;48.492;9.184;2022-08-20T10:26:17;7.90;;;2.90;;
1296;SDS011;641;48.492;9.184;2022-08-20T10:28:43;9.60;;;3.57;;
1296;SDS011;641;48.492;9.184;2022-08-20T10:31:10;8.37;;;3.00;;
1296;SDS011;641;48.492;9.184;2022-08-20T10:33:37;8.50;;;3.50;;
1296;SDS011;641;48.492;9.184;2022-08-20T10:36:07;8.80;;;3.30;;
1296;SDS011;641;48.492;9.184;2022-08-20T10:38:37;7.87;;;3.17;;
1296;SDS011;641;48.492;9.184;2022-08-20T10:41:03;9.33;;;2.63;;
1296;SDS011;641;48.492;9.184;2022-08-20T10:43:29;7.50;;;2.33;;
1296;SDS011;641;48.492;9.184;2022-08-20T10:45:55;7.87;;;2.63;;
1296;SDS011;641;48.492;9.184;2022-08-20T10:48:21;8.00;;;2.90;;
1296;SDS011;641;48.492;9.184;2022-08-20T10:50:48;6.57;;;1.80;;
1296;SDS011;641;48.492;9.184;2022-08-20T10:53:13;6.80;;;2.00;;
1296;SDS011;641;48.492;9.184;2022-08-20T10:55:40;7.30;;;1.87;;
1296;SDS011;641;48.492;9.184;2022-08-20T10:58:06;8.60;;;1.77;;
1296;SDS011;641;48.492;9.184;2022-08-20T11:00:32;8.57;;;2.70;;
1296;SDS011;641;48.492;9.184;2022-08-20T11:02:59;6.60;;;1.67;;
1296;SDS011;641;48.492;9.184;2022-08-20T11:05:24;7.20;;;1.80;;
1296;SDS011;641;48.492;9.184;2022-08-20T11:07:50;6.73;;;1.77;;
1296;SDS011;641;48.492;9.184;2022-08-20T11:10:16;7.57;;;2.20;;
1296;SDS011;641;48.492;9.184;2022-08-20T11:12:41;7.77;;;2.40;;
1296;SDS011;641;48.492;9.184;2022-08-20T11:15:07;7.30;;;2.10;;
1296;SDS011;641;48.492;9.184;2022-08-20T11:17:34;6.80;;;2.23;;
1296;SDS011;641;48.492;9.184;2022-08-20T11:20:04;7.23;;;2.03;;
1296;SDS011;641;48.492;9.184;2022-08-20T11:22:32;6.93;;;2.10;;
1296;SDS011;641;48.492;9.184;2022-08-20T11:24:58;8.30;;;1.93;;
1296;SDS011;641;48.492;9.184;2022-08-20T11:27:28;7.10;;;2.37;;
1296;SDS011;641;48.492;9.184;2022-08-20T11:29:57;7.50;;;2.40;;
1296;SDS011;641;48.492;9.184;2022-08-20T11:32:23;7.37;;;2.00;;
1296;SDS011;641;48.492;9.184;2022-08-20T11:34:49;8.73;;;2.20;;
1296;SDS011;641;48.492;9.184;2022-08-20T11:37:16;7.60;;;2.10;;
1296;SDS011;641;48.492;9.184;2022-08-20T11:39:43;7.83;;;2.50;;
1296;SDS011;641;48.492;9.184;2022-08-20T11:42:09;7.60;;;2.30;;
1296;SDS011;641;48.492;9.184;2022-08-20T11:44:35;7.40;;;2.30;;
1296;SDS011;641;48.492;9.184;2022-08-20T11:47:01;9.27;;;1.80;;
1296;SDS011;641;48.492;9.184;2022-08-20T11:49:28;6.63;;;1.63;;
1296;SDS011;641;48.492;9.184;2022-08-20T11:51:54;7.20;;;1.90;;
1296;SDS011;641;48.492;9.184;2022-08-20T11:54:20;6.70;;;1.30;;
1296;SDS011;641;48.492;9.184;2022-08-20T11:56:46;6.40;;;1.30;;
1296;SDS011;641;48.492;9.184;2022-08-20T11:59:12;7.30;;;2.00;;
1296;SDS011;641;48.492;9.184;2022-08-20T12:01:38;7.57;;;2.10;;
1296;SDS011;641;48.492;9.184;2022-08-20T12:04:03;6.53;;;1.63;;
1296;SDS011;641;48.492;9.184;2022-08-20T12:06:29;7.77;;;2.00;;
1296;SDS011;641;48.492;9.184;2022-08-20T12:08:55;7.80;;;1.87;;
1296;SDS011;641;48.492;9.184;2022-08-20T12:11:20;6.90;;;1.43;;
1296;SDS011;641;48.492;9.184;2022-08-20T12:13:46;6.10;;;1.63;;
1296;SDS011;641;48.492;9.184;2022-08-20T12:16:12;6.90;;;1.47;;
1296;SDS011;641;48.492;9.184;2022-08-20T12:18:37;6.57;;;1.60;;
1296;SDS011;641;48.492;9.184;2022-08-20T12:21:03;6.70;;;1.70;;
1296;SDS011;641;48.492;9.184;2022-08-20T12:23:29;6.70;;;1.57;;
1296;SDS011;641;48.492;9.184;2022-08-20T12:25:55;7.20;;;1.50;;
1296;SDS011;641;48.492;9.184;2022-08-20T12:28:20;6.33;;;1.30;;
1296;SDS011;641;48.492;9.184;2022-08-20T12:30:46;6.73;;;1.40;;
1296;SDS011;641;48.492;9.184;2022-08-20T12:33:12;6.97;;;1.77;;
1296;SDS011;641;48.492;9.184;2022-08-20T12:35:38;6.73;;;1.57;;
1296;SDS011;641;48.492;9.184;2022-08-20T12:38:04;7.83;;;1.80;;
1296;SDS011;641;48.492;9.184;2022-08-20T12:40:31;6.40;;;1.33;;
1296;SDS011;641;48.492;9.184;2022-08-20T12:42:57;6.53;;;1.30;;
1296;SDS011;641;48.492;9.184;2022-08-20T12:45:23;7.10;;;2.53;;
1296;SDS011;641;48.492;9.184;2022-08-20T12:47:49;6.10;;;1.30;;
1296;SDS011;641;48.492;9.184;2022-08-20T12:50:22;7.43;;;1.67;;
1296;SDS011;641;48.492;9.184;2022-08-20T12:52:49;6.37;;;1.53;;
1296;SDS011;641;48.492;9.184;2022-08-20T12:55:16;7.37;;;1.83;;
1296;SDS011;641;48.492;9.184;2022-08-20T12:57:44;5.90;;;1.10;;
1296;SDS011;641;48.492;9.184;2022-08-20T13:00:16;6.70;;;1.50;;
1296;SDS011;641;48.492;9.184;2022-08-20T13:02:51;6.60;;;1.43;;
1296;SDS011;641;48.492;9.184;2022-08-20T13:05:18;6.67;;;1.30;;
1296;SDS011;641;48.492;9.184;2022-08-20T13:07:45;8.43;;;1.63;;
1296;SDS011;641;48.492;9.184;2022-08-20T13:10:12;6.50;;;1.40;;
1296;SDS011;641;48.492;9.184;2022-08-20T13:12:41;6.00;;;1.27;;
1296;SDS011;641;48.492;9.184;2022-08-20T13:15:06;5.77;;;1.10;;
1296;SDS011;641;48.492;9.184;2022-08-20T13:17:32;7.53;;;1.43;;
1296;SDS011;641;48.492;9.184;2022-08-20T13:19:58;5.80;;;1.00;;
1296;SDS011;641;48.492;9.184;2022-08-20T13:22:23;5.77;;;1.10;;
1296;SDS011;641;48.492;9.184;2022-08-20T13:24:49;6.10;;;1.20;;
1296;SDS011;641;48.492;9.184;2022-08-20T13:27:16;6.67;;;1.17;;
1296;SDS011;641;48.492;9.184;2022-08-20T13:29:46;6.20;;;1.20;;
1296;SDS011;641;48.492;9.184;2022-08-20T13:32:14;5.97;;;1.10;;
1296;SDS011;641;48.492;9.184;2022-08-20T13:34:40;5.90;;;1.17;;
1296;SDS011;641;48.492;9.184;2022-08-20T13:37:13;6.93;;;1.20;;
1296;SDS011;641;48.492;9.184;2022-08-20T13:39:40;6.00;;;1.13;;
1296;SDS011;641;48.492;9.184;2022-08-20T13:42:06;7.23;;;1.43;;
1296;SDS011;641;48.492;9.184;2022-08-20T13:44:33;7.07;;;1.30;;
1296;SDS011;641;48.492;9.184;2022-08-20T13:46:59;5.90;;;1.00;;
1296;SDS011;641;48.492;9.184;2022-08-20T13:49:25;6.30;;;1.50;;
1296;SDS011;641;48.492;9.184;2022-08-20T13:51:51;6.03;;;1.23;;
1296;SDS011;641;48.492;9.184;2022-08-20T13:54:16;6.13;;;1.27;;
1296;SDS011;641;48.492;9.184;2022-08-20T13:56:42;6.67;;;1.20;;
1296;SDS011;641;48.492;9.184;2022-08-20T13:59:07;5.70;;;1.13;;
1296;SDS011;641;48.492;9.184;2022-08-20T14:01:33;7.00;;;1.00;;
1296;SDS011;641;48.492;9.184;2022-08-20T14:03:59;5.90;;;1.27;;
1296;SDS011;641;48.492;9.184;2022-08-20T14:06:24;6.87;;;1.37;;
1296;SDS011;641;48.492;9.184;2022-08-20T14:08:50;7.83;;;1.90;;
1296;SDS011;641;48.492;9.184;2022-08-20T14:11:16;6.87;;;1.67;;
1296;SDS011;641;48.492;9.184;2022-08-20T14:13:42;6.10;;;1.20;;
1296;SDS011;641;48.492;9.184;2022-08-20T14:16:07;7.83;;;1.73;;
1296;SDS011;641;48.492;9.184;2022-08-20T14:18:33;6.30;;;1.23;;
1296;SDS011;641;48.492;9.184;2022-08-20T14:20:58;5.80;;;1.10;;
1296;SDS011;641;48.492;9.184;2022-08-20T14:23:24;6.20;;;1.30;;
1296;SDS011;641;48.492;9.184;2022-08-20T14:25:50;6.27;;;1.37;;
1296;SDS011;641;48.492;9.184;2022-08-20T14:28:20;6.50;;;1.30;;
1296;SDS011;641;48.492;9.184;2022-08-20T14:30:47;6.70;;;1.40;;
1296;SDS011;641;48.492;9.184;2022-08-20T14:33:14;6.70;;;1.40;;
1296;SDS011;641;48.492;9.184;2022-08-20T14:35:40;7.50;;;1.47;;
1296;SDS011;641;48.492;9.184;2022-08-20T14:38:06;6.23;;;1.30;;
1296;SDS011;641;48.492;9.184;2022-08-20T14:40:31;5.87;;;1.37;;
1296;SDS011;641;48.492;9.184;2022-08-20T14:42:57;6.77;;;1.40;;
1296;SDS011;641;48.492;9.184;2022-08-20T14:45:23;6.57;;;1.67;;
1296;SDS011;641;48.492;9.184;2022-08-20T14:47:53;6.30;;;1.30;;
1296;SDS011;641;48.492;9.184;2022-08-20T14:52:52;6.53;;;1.10;;
1296;SDS011;641;48.492;9.184;2022-08-20T14:55:19;6.20;;;1.20;;
1296;SDS011;641;48.492;9.184;2022-08-20T14:57:46;7.83;;;1.70;;
1296;SDS011;641;48.492;9.184;2022-08-20T15:00:14;8.30;;;1.60;;
1296;SDS011;641;48.492;9.184;2022-08-20T15:02:45;8.60;;;1.90;;
1296;SDS011;641;48.492;9.184;2022-08-20T15:05:12;6.50;;;1.50;;
1296;SDS011;641;48.492;9.184;2022-08-20T15:07:39;6.47;;;1.57;;
1296;SDS011;641;48.492;9.184;2022-08-20T15:10:09;6.23;;;1.43;;
1296;SDS011;641;48.492;9.184;2022-08-20T15:12:37;6.70;;;1.70;;
1296;SDS011;641;48.492;9.184;2022-08-20T15:15:04;6.90;;;1.60;;
1296;SDS011;641;48.492;9.184;2022-08-20T15:17:32;6.00;;;1.20;;
1296;SDS011;641;48.492;9.184;2022-08-20T15:20:00;6.90;;;1.30;;
1296;SDS011;641;48.492;9.184;2022-08-20T15:22:26;6.07;;;1.30;;
1296;SDS011;641;48.492;9.184;2022-08-20T15:24:52;6.40;;;1.27;;
1296;SDS011;641;48.492;9.184;2022-08-20T15:27:19;6.30;;;1.40;;
1296;SDS011;641;48.492;9.184;2022-08-20T15:29:46;6.50;;;1.23;;
1296;SDS011;641;48.492;9.184;2022-08-20T15:32:12;6.83;;;1.47;;
1296;SDS011;641;48.492;9.184;2022-08-20T15:34:38;7.10;;;1.67;;
1296;SDS011;641;48.492;9.184;2022-08-20T15:37:23;7.10;;;1.20;;
1296;SDS011;641;48.492;9.184;2022-08-20T15:39:49;6.00;;;1.20;;